Time;durP1;ratioP1;P1;durP2;ratioP2;P2;SDS_P1;SDS_P2;PMS_P1;PMS_P2;Temp;Humidity;BMP_temperature;BMP_pressure;BME280_temperature;BME280_humidity;BME280_pressure;Samples;Min_cycle;Max_cycle;Signal;HPM_P1;HPM_P2
2021/11/05 00:08:22;;;;;;;43.00;18.25;;;7.60;99.90;;;;;;6748602;77;20315;-76
2021/11/05 00:18:23;;;;;;;40.90;18.45;;;7.70;99.90;;;;;;6739786;88;20744;-76
2021/11/05 00:28:24;;;;;;;39.50;17.87;;;7.80;99.90;;;;;;6752591;88;20273;-75
2021/11/05 00:38:24;;;;;;;40.72;17.48;;;7.80;99.90;;;;;;6750539;88;20259;-75
2021/11/05 00:48:25;;;;;;;47.17;20.58;;;7.90;99.90;;;;;;6751558;88;20219;-76
2021/11/05 00:58:25;;;;;;;42.35;19.77;;;7.70;99.90;;;;;;6751277;88;20727;-75
2021/11/05 01:08:26;;;;;;;45.70;19.35;;;7.80;99.90;;;;;;6756316;87;20203;-76
2021/11/05 01:18:26;;;;;;;43.28;19.42;;;7.90;99.90;;;;;;6775450;87;20308;-76
2021/11/05 01:28:27;;;;;;;40.87;18.10;;;7.90;99.90;;;;;;6766042;87;20211;-76
2021/11/05 01:38:28;;;;;;;41.00;18.80;;;7.90;99.90;;;;;;6770776;87;20577;-75
2021/11/05 01:48:28;;;;;;;46.13;19.62;;;7.80;99.90;;;;;;6771022;87;20630;-74
2021/11/05 01:58:29;;;;;;;44.83;19.30;;;7.70;99.90;;;;;;6766499;87;20725;-76
2021/11/05 02:08:30;;;;;;;39.38;18.58;;;7.80;99.90;;;;;;6771245;87;20499;-76
2021/11/05 02:18:30;;;;;;;37.17;17.95;;;7.90;99.90;;;;;;6769364;87;20220;-75
2021/11/05 02:28:38;;;;;;;41.20;18.40;;;7.90;99.90;;;;;;6768414;87;20197;-76
2021/11/05 02:38:39;;;;;;;42.05;19.10;;;7.90;99.90;;;;;;6770871;87;20242;-76
2021/11/05 02:48:40;;;;;;;40.40;18.20;;;7.90;99.90;;;;;;6767650;87;20195;-76
2021/11/05 02:58:40;;;;;;;39.95;17.67;;;8.00;99.90;;;;;;6767328;87;20210;-76
2021/11/05 03:08:41;;;;;;;46.72;18.92;;;8.00;99.90;;;;;;6766925;87;20211;-76
2021/11/05 03:18:42;;;;;;;45.17;19.37;;;8.00;99.90;;;;;;6768186;87;20172;-75
2021/11/05 03:28:42;;;;;;;49.25;20.08;;;8.00;99.90;;;;;;6768882;87;20219;-76
2021/11/05 03:38:43;;;;;;;55.47;20.98;;;8.00;99.90;;;;;;6766030;87;20809;-76
2021/11/05 03:48:44;;;;;;;59.67;21.02;;;8.00;99.90;;;;;;6761125;87;20692;-76
2021/11/05 03:58:44;;;;;;;51.80;19.80;;;8.00;99.90;;;;;;6766298;87;20321;-75
2021/11/05 04:08:45;;;;;;;50.83;18.62;;;8.00;99.90;;;;;;6766281;87;20208;-76
2021/11/05 04:18:45;;;;;;;49.45;18.48;;;8.00;99.90;;;;;;6766791;87;20241;-76
2021/11/05 04:28:46;;;;;;;41.87;17.97;;;8.00;99.90;;;;;;6764033;87;20287;-76
2021/11/05 04:38:47;;;;;;;50.12;17.77;;;8.00;99.90;;;;;;6766354;87;20531;-76
2021/11/05 04:48:48;;;;;;;52.92;19.30;;;8.00;99.90;;;;;;6768275;87;20201;-75
2021/11/05 04:58:48;;;;;;;48.20;18.70;;;8.00;99.90;;;;;;6767072;87;20223;-76
2021/11/05 05:08:49;;;;;;;38.97;16.83;;;8.00;99.90;;;;;;6765041;87;20238;-76
2021/11/05 05:18:49;;;;;;;41.58;16.48;;;8.00;99.90;;;;;;6753479;87;20180;-76
2021/11/05 05:28:50;;;;;;;41.42;16.17;;;8.00;99.90;;;;;;6755077;87;20185;-76
2021/11/05 05:38:50;;;;;;;36.85;15.65;;;8.00;99.90;;;;;;6751468;87;20194;-76
2021/11/05 05:48:51;;;;;;;36.17;15.23;;;8.00;99.90;;;;;;6755147;87;20218;-76
2021/11/05 05:58:51;;;;;;;31.85;14.00;;;7.90;99.90;;;;;;6761239;87;20923;-76
2021/11/05 06:08:52;;;;;;;28.08;13.65;;;7.80;99.90;;;;;;6751548;87;20193;-76
2021/11/05 06:18:52;;;;;;;31.73;13.88;;;7.80;99.90;;;;;;6753292;88;20169;-75
2021/11/05 06:28:53;;;;;;;31.92;13.62;;;7.90;99.90;;;;;;6765445;87;20179;-74
2021/11/05 06:38:55;;;;;;;31.73;13.75;;;7.80;99.90;;;;;;6752084;88;20202;-75
2021/11/05 06:48:56;;;;;;;31.52;13.45;;;7.80;99.90;;;;;;6746865;87;20279;-74
2021/11/05 06:58:59;;;;;;;28.92;13.45;;;7.80;99.90;;;;;;6754094;87;21007;-76
2021/11/05 07:09:00;;;;;;;28.25;12.85;;;7.80;99.90;;;;;;6754271;88;20189;-77
2021/11/05 07:19:01;;;;;;;32.40;13.65;;;7.90;99.90;;;;;;6753443;88;21030;-78
2021/11/05 07:29:04;;;;;;;30.80;13.62;;;7.90;99.90;;;;;;6752202;88;20209;-75
2021/11/05 07:39:07;;;;;;;37.15;14.50;;;8.00;99.90;;;;;;6753284;88;20207;-75
2021/11/05 07:49:08;;;;;;;33.30;16.30;;;8.00;99.90;;;;;;6754043;88;20214;-74
2021/11/05 07:59:09;;;;;;;35.33;15.30;;;8.10;99.90;;;;;;6747630;88;20258;-77
2021/11/05 08:09:09;;;;;;;32.42;16.05;;;8.20;99.90;;;;;;6754023;87;20188;-74
2021/11/05 08:19:10;;;;;;;34.75;15.98;;;8.30;99.90;;;;;;6747487;87;20184;-74
2021/11/05 08:29:11;;;;;;;34.33;15.68;;;8.60;99.90;;;;;;6750588;87;20180;-75
2021/11/05 08:39:11;;;;;;;35.92;16.20;;;8.80;99.90;;;;;;6757301;87;22178;-77
2021/11/05 08:49:15;;;;;;;31.05;15.20;;;8.60;99.90;;;;;;6753370;88;20172;-77
2021/11/05 08:59:18;;;;;;;25.42;12.73;;;8.80;99.90;;;;;;6750219;88;20169;-74
2021/11/05 09:09:20;;;;;;;25.15;12.30;;;8.70;99.90;;;;;;6760608;87;20196;-79
2021/11/05 09:19:21;;;;;;;28.25;13.20;;;8.80;99.90;;;;;;6775229;87;20687;-75
2021/11/05 09:29:21;;;;;;;30.45;13.38;;;9.00;99.90;;;;;;6765635;87;20214;-75
2021/11/05 09:39:22;;;;;;;25.15;12.20;;;9.00;99.90;;;;;;6766610;87;20219;-77
2021/11/05 09:49:22;;;;;;;25.67;12.15;;;9.10;99.90;;;;;;6761896;87;20181;-76
2021/11/05 09:59:24;;;;;;;23.80;11.10;;;9.20;99.90;;;;;;6774007;87;20309;-77
2021/11/05 10:09:29;;;;;;;24.37;10.80;;;9.50;99.90;;;;;;6773304;87;20217;-77
2021/11/05 10:19:56;;;;;;;25.05;11.32;;;9.60;99.90;;;;;;6767932;87;20649;-77
2021/11/05 10:30:03;;;;;;;27.30;12.07;;;9.70;99.90;;;;;;6764804;87;20250;-77
2021/11/05 10:40:07;;;;;;;23.23;10.50;;;9.70;99.90;;;;;;6773307;87;20706;-78
2021/11/05 10:50:12;;;;;;;21.08;10.73;;;10.00;99.90;;;;;;6769548;87;20318;-76
2021/11/05 11:00:29;;;;;;;23.02;10.13;;;10.00;99.90;;;;;;6767800;87;20271;-77
2021/11/05 11:10:35;;;;;;;21.77;10.00;;;10.00;99.90;;;;;;6766241;87;20209;-76
2021/11/05 11:20:36;;;;;;;18.65;9.60;;;10.50;99.90;;;;;;6766218;87;20663;-77
2021/11/05 11:30:38;;;;;;;18.60;8.15;;;10.60;99.90;;;;;;6772039;87;20362;-77
2021/11/05 11:40:40;;;;;;;17.45;8.05;;;11.00;99.90;;;;;;6781992;87;20207;-78
2021/11/05 11:50:41;;;;;;;17.27;7.80;;;11.10;99.90;;;;;;6763905;87;20220;-78
2021/11/05 12:00:43;;;;;;;15.60;6.72;;;11.50;99.90;;;;;;6750660;87;20323;-76
2021/11/05 12:10:48;;;;;;;14.10;6.87;;;11.60;99.90;;;;;;6725203;87;20722;-75
2021/11/05 12:20:49;;;;;;;14.20;7.28;;;11.60;99.90;;;;;;6736270;87;20392;-74
2021/11/05 12:30:53;;;;;;;14.43;7.50;;;11.80;99.90;;;;;;6764795;87;20182;-75
2021/11/05 12:41:00;;;;;;;14.07;7.12;;;11.80;99.90;;;;;;6764870;87;20198;-75
2021/11/05 12:51:01;;;;;;;13.18;7.10;;;11.80;99.90;;;;;;6755067;87;20193;-75
2021/11/05 13:01:02;;;;;;;15.85;6.90;;;12.00;99.90;;;;;;6750017;87;20216;-74
2021/11/05 13:11:14;;;;;;;13.25;6.10;;;11.90;99.90;;;;;;6741506;87;20217;-75
2021/11/05 13:21:23;;;;;;;12.20;6.28;;;11.60;99.90;;;;;;6712714;87;20252;-76
2021/11/05 13:31:23;;;;;;;11.93;6.95;;;11.10;99.90;;;;;;6760149;87;20623;-75
2021/11/05 13:41:28;;;;;;;13.82;6.85;;;11.30;99.90;;;;;;6766580;87;20196;-75
2021/11/05 13:51:31;;;;;;;15.55;6.75;;;11.70;99.90;;;;;;6760557;87;20195;-76
2021/11/05 14:01:34;;;;;;;13.68;6.82;;;11.60;99.90;;;;;;6764621;87;20574;-77
2021/11/05 14:11:44;;;;;;;15.75;6.53;;;11.40;99.90;;;;;;6763713;87;20274;-76
2021/11/05 14:21:56;;;;;;;12.75;6.50;;;11.30;99.90;;;;;;6761241;87;20212;-75
2021/11/05 14:32:02;;;;;;;12.75;6.65;;;11.00;99.90;;;;;;6763714;87;20586;-76
2021/11/05 14:42:25;;;;;;;12.77;6.75;;;11.20;99.90;;;;;;6773216;87;20329;-77
2021/11/05 14:52:25;;;;;;;16.83;6.30;;;11.20;99.90;;;;;;6776092;87;20628;-74
2021/11/05 15:02:34;;;;;;;14.35;6.97;;;11.10;99.90;;;;;;6764662;87;20184;-77
2021/11/05 15:12:35;;;;;;;9.18;4.07;;;11.00;99.90;;;;;;6757314;87;20214;-77
2021/11/05 15:22:36;;;;;;;7.15;2.80;;;10.80;99.90;;;;;;6757341;87;20199;-76
2021/11/05 15:32:36;;;;;;;7.20;2.70;;;10.80;99.90;;;;;;6747081;87;20196;-76
2021/11/05 15:42:37;;;;;;;6.20;2.62;;;10.90;99.90;;;;;;6751025;87;20205;-76
2021/11/05 15:52:39;;;;;;;8.80;2.47;;;10.70;99.90;;;;;;6756945;87;20230;-76
2021/11/05 16:02:40;;;;;;;5.45;2.00;;;10.80;99.90;;;;;;6760911;87;20232;-76
2021/11/05 16:12:42;;;;;;;7.35;2.50;;;10.60;99.90;;;;;;6758581;87;20179;-77
2021/11/05 16:22:43;;;;;;;8.65;2.80;;;10.60;99.90;;;;;;6761822;87;20168;-78
2021/11/05 16:32:44;;;;;;;9.40;3.05;;;10.30;99.90;;;;;;6745214;87;20223;-77
2021/11/05 16:42:44;;;;;;;9.55;3.08;;;10.30;99.90;;;;;;6755805;87;20189;-78
2021/11/05 16:52:45;;;;;;;7.93;2.90;;;10.00;99.90;;;;;;6770522;87;20206;-77
2021/11/05 17:02:47;;;;;;;10.20;4.20;;;10.00;99.90;;;;;;6775838;87;20872;-78
2021/11/05 17:12:48;;;;;;;8.40;3.33;;;10.10;99.90;;;;;;6777989;87;20191;-77
2021/11/05 17:22:49;;;;;;;7.25;2.85;;;10.00;99.90;;;;;;6781349;87;20170;-77
2021/11/05 17:32:51;;;;;;;7.53;4.40;;;10.20;99.90;;;;;;6778701;87;20262;-78
2021/11/05 17:42:52;;;;;;;11.38;4.35;;;9.90;99.90;;;;;;6777908;87;20241;-78
2021/11/05 17:52:54;;;;;;;9.10;3.60;;;9.80;99.90;;;;;;6773927;87;20348;-77
2021/11/05 18:02:56;;;;;;;14.35;3.95;;;9.70;99.90;;;;;;6781709;87;20190;-77
2021/11/05 18:12:57;;;;;;;7.35;3.47;;;9.80;99.90;;;;;;6780783;87;20332;-77
2021/11/05 18:22:58;;;;;;;12.30;4.50;;;9.80;99.90;;;;;;6775813;87;20687;-76
2021/11/05 18:33:00;;;;;;;11.40;5.07;;;9.80;99.90;;;;;;6777317;87;20191;-77
2021/11/05 18:43:02;;;;;;;12.80;5.30;;;9.80;99.90;;;;;;6771045;87;20264;-77
2021/11/05 18:53:04;;;;;;;16.37;5.57;;;10.00;99.90;;;;;;6766211;87;20275;-79
2021/11/05 19:03:07;;;;;;;15.30;6.05;;;10.00;99.90;;;;;;6771999;87;20197;-77
2021/11/05 19:13:10;;;;;;;14.98;5.93;;;9.90;99.90;;;;;;6760581;87;20398;-78
2021/11/05 19:23:12;;;;;;;12.13;5.78;;;9.80;99.90;;;;;;6773468;87;20339;-78
2021/11/05 19:33:13;;;;;;;10.63;5.90;;;9.60;99.90;;;;;;6764809;87;20687;-80
2021/11/05 19:43:14;;;;;;;14.38;5.68;;;9.50;99.90;;;;;;6777712;87;20713;-80
2021/11/05 19:53:14;;;;;;;13.95;5.37;;;9.50;99.90;;;;;;6778104;87;20281;-80
2021/11/05 20:03:16;;;;;;;13.27;5.07;;;9.60;99.90;;;;;;6778092;87;20216;-79
2021/11/05 20:13:18;;;;;;;10.90;5.45;;;9.50;99.90;;;;;;6763051;87;20193;-80
2021/11/05 20:23:18;;;;;;;10.77;5.30;;;9.40;99.90;;;;;;6745825;88;20671;-79
2021/11/05 20:33:20;;;;;;;11.40;5.43;;;9.40;99.90;;;;;;6742996;88;20252;-79
2021/11/05 20:43:21;;;;;;;10.05;5.68;;;9.30;99.90;;;;;;6739550;88;20929;-80
2021/11/05 20:53:22;;;;;;;16.67;7.97;;;9.30;99.90;;;;;;6758140;88;20255;-79
2021/11/05 21:03:22;;;;;;;12.43;6.97;;;9.20;99.90;;;;;;6760121;88;20235;-79
2021/11/05 21:13:23;;;;;;;17.27;7.37;;;9.10;99.90;;;;;;6756783;88;20660;-79
2021/11/05 21:23:24;;;;;;;17.20;7.68;;;8.90;99.90;;;;;;6752803;88;20430;-78
2021/11/05 21:33:27;;;;;;;16.52;8.20;;;9.00;99.90;;;;;;6760797;88;20671;-80
2021/11/05 21:43:27;;;;;;;18.52;9.13;;;8.90;99.90;;;;;;6761099;88;20221;-79
2021/11/05 21:53:28;;;;;;;19.65;9.48;;;8.70;99.90;;;;;;6763474;88;20270;-80
2021/11/05 22:03:29;;;;;;;20.27;9.95;;;8.60;99.90;;;;;;6763010;88;20262;-80
2021/11/05 22:13:29;;;;;;;17.73;8.98;;;8.50;99.90;;;;;;6762316;87;20204;-78
2021/11/05 22:23:30;;;;;;;21.55;9.73;;;8.60;99.90;;;;;;6766277;87;20202;-77
2021/11/05 22:33:30;;;;;;;25.35;10.68;;;8.40;99.90;;;;;;6783796;87;20296;-78
2021/11/05 22:43:32;;;;;;;22.75;11.25;;;8.30;99.90;;;;;;6780871;87;20678;-78
2021/11/05 22:53:32;;;;;;;31.12;11.43;;;8.10;99.90;;;;;;6780171;87;20238;-78
2021/11/05 23:03:33;;;;;;;23.17;11.63;;;8.40;99.90;;;;;;6779108;87;20710;-78
2021/11/05 23:13:34;;;;;;;20.23;10.45;;;8.50;99.90;;;;;;6779138;87;20544;-78
2021/11/05 23:23:35;;;;;;;22.98;10.10;;;8.60;99.90;;;;;;6771840;87;20214;-78
2021/11/05 23:33:36;;;;;;;23.60;10.38;;;8.50;99.90;;;;;;6761515;88;20899;-78
2021/11/05 23:43:37;;;;;;;25.62;10.27;;;8.40;99.90;;;;;;6757812;88;20191;-79
2021/11/05 23:53:38;;;;;;;22.92;10.02;;;8.40;99.90;;;;;;6762535;88;20392;-78
